Denver, Colorado
Traffic Map
Current Weather Conditions
Denver, Colorado
Broken Clouds
Broken Clouds
70°
Feels Like: 70°
Wind Chill: 70° Ceiling: 20000
Heat Index: 70° Visibility: 10mi
Dew Point: 52° Wind: 3mph
Humidity: 53% Direction: 10° (N)
Pressure: 30.31in Gusts: 0mph
Raw Report DataKBKF 312058Z 01003KT 10SM SCT045 BKN200 21/11 A3031 RMK AO2A SLP202 T02110113 57010
Traffic Incident Summary
Active as of:
Severity:
Category:
InformationThere was an issue retrieving the traffic information for this location. Please try a different location or try again shortly.
Advertisements
Track Severe Weather on mobile